Tuesday, May 31, 2016
19:55 UTC
  |  Log In   |  Register Free
Airport Search:

Ryan Field Airport
(KRYN)

FAA data valid effective Mar 31 2016 - May 26 2016 (unless otherwise noted).

 
 
 
 
 
 
 
 
 
 
 
 
 
 
Summary: Ryan Field (RYN)

Weather Summary


METAR for KRYN is not available. Closest METAR is for KTUS
KRYN  (most recent observation was updatred at 31:19 UTC)
311945Z 03005KT 10SM CLR 31/M05 A2984

KTUS  (12.0 nm NW)   (most recent observation was updated at 31:18 UTC)
311853Z 19005KT 10SM CLR 31/M04 A2987 RMK AO2 SLP069 T03061039

KDMA  (14.9 nm SW)   (most recent observation was updated at 31:18 UTC)
311858Z AUTO VRB03KT 10SM FEW150 SCT200 30/M04 A2985 RMK AO2 SLP066 T03041042 CHINO RWY30 $

TAF for KRYN is not available.
KTUS  (12.0 nm NW)   (most recent observation was updatred at 31:17 UTC)
311738Z 3118/0118 VRB03KT P6SM SKC FM312000 30011KT P6SM SCT110 FM010200 22005KT P6SM SCT140 FM010700 14007KT P6SM SKC


KDMA  (14.9 nm SW)   (most recent observation was updatred at 31:13 UTC)
311300Z 3113/0119 VRB06KT 9999 SKC QNH2986INS BECMG 3117/3118 30012KT 9999 FEW250 QNH2985INS TEMPO 3121/0101 25015G25KT 520009 BECMG 0101/0102 VRB06KT 9999 SCT120 QNH2981INS BECMG 0117/0118 30012KT 9999 SCT120 QNH2993INS TX32/3121Z TN16/0112Z


GlobalAir.com is loading additional information.
 Current Weather at RYN
81.0 F° (27.0 C°)
Fair
North winds at 0.0 mph
Pressure:
29.89 in
Humidity:
15%
Wind:
Calm
Dew Point:
28.4 F° (-2.0 C°)
Visibility:
10.00 mi
RYN NOAA Radar

Runway Summary

ID Dimensions Surface Instrument Approaches
06R/24L 75 ft x 5503 ft Asphalt, Good Condition ILS OR LOC RWY 06R
NDB/DME OR GPS RWY 06R
NDB/DME OR GPS RWY 06R
06L/24R 75 ft x 4900 ft Asphalt, Good Condition NDB/DME OR GPS RWY 06R
15/33 75 ft x 4000 ft Asphalt, Fair Condition NDB/DME OR GPS RWY 06R

Communications Summary


CTAF125.80
UNICOMN/A
ATISN/A
WX AWOS-3
RYAN GROUND118.2 [0600-2000]
RYAN TOWER125.8 [0600-2000]
TUCSON APPROACH128.5
TUCSON DEPARTURE128.5
CLEARANCE DELIVERYN/A

Terminal Procedures Summary


Airport Diagram

Approaches
Special Minimums

Closest Alternate Airports with Instrument Procedures

4AZ0 - Palm Valley Tucson - 11.9 nm NW from RYN

KTUS - Tucson International - 13.8 nm SE from RYN

KAVQ - Marana Regional - 18.7 nm NW from RYN

KOLS - Nogales International - 53.7 nm SE from RYN

KP08 - Coolidge Municipal - 56.8 nm NW from RYN

KFHU - Sierra Vista Municipal-Libby Aaf - 62 nm SE from RYN

KCGZ - Casa Grande Municipal - 66 nm NW from RYN

KP33 - Cochise County - 75.3 nm NE from RYN

KIWA - Phoenix-Mesa Gateway - 85.3 nm NW from RYN

KCHD - Chandler Municipal - 86.3 nm NW from RYN

Find All Airport Services Find A Hotel Find A Rental Car Find A Golf Course Find A Restaurant $100 Hamburger



FBO's on the Field
FBO Company Facility Photos Services Transportation Aviation Fuel Prices: Prices include tax
Catering Weather Repair Courtesy Rental Type 100LL JetA JetA+ MOGAS 8087
 
Velocity Air Inc.

This FBO has not yet been rated
FS:Ascent
Last Updated: May-17
Login to update fuel prices
SS:
Contact Velocity Air Inc.More FBO Information
 
Add another FBO Facility Photos Catering Weather Repair Courtesy Rental Type 100LL JetA JetA+ MOGAS 8087
Services Transportation Aviation Fuel Prices: Prices include tax


model-print
model-print
model-print
model-print